WEATHER DATA

TODAY
Time Temp. Dewp. Hum. Bar.
00:08 16.1 15 93 1016.7
00:18 16.1 15 93 1016.7
00:28 16 14.9 93 1016.8
00:38 16 14.9 93 1016.9
00:48 16 14.9 93 1016.9
00:59 15.9 14.8 93 1016.9
01:18 16 15 94 1017.1
01:29 16 15 94 1017.2
01:39 16 14.9 93 1017.2
01:49 16.1 15 93 1017.2
01:59 16.1 15 93 1017.2
02:09 16 14.7 92 1017.3
02:19 16 14.7 92 1017.3
02:29 15.9 14.6 92 1017.4
02:39 15.9 14.6 92 1017.4
02:50 15.8 14.3 91 1017.5
03:00 15.7 14.2 91 1017.5
03:09 15.6 14.1 91 1017.6
03:20 15.6 14.1 91 1017.6
03:30 15.6 14.3 92 1017.8
03:40 15.5 14.2 92 1017.9
03:50 15.5 14.2 92 1017.9
04:00 15.5 14.2 92 1018
04:10 15.5 14.2 92 1018.1
04:20 15.6 14.3 92 1018.2
04:31 15.6 14.3 92 1018.3
04:41 15.6 14.3 92 1018.4
04:50 15.6 14.3 92 1018.5
05:00 15.6 14.3 92 1018.7
05:11 15.6 14.1 91 1018.8
05:21 15.6 14.1 91 1019
05:31 15.6 14.1 91 1019.1
05:41 15.6 14.3 92 1019.1
05:51 15.5 14 91 1019.2
06:01 15.5 14 91 1019.3
06:11 15.5 14 91 1019.5
06:22 15.4 13.9 91 1019.6
06:31 15.3 13.8 91 1019.9
06:41 15.2 13.7 91 1020
06:52 15.1 13.6 91 1020.1
07:02 15 13.5 91 1020.2
07:12 15 13.7 92 1020.3
07:21 15 13.7 92 1020.4
07:32 15 13.7 92 1020.5
07:42 15 13.7 92 1020.7
07:52 15 13.7 92 1020.8
08:02 15.1 13.8 92 1021
08:11 15.2 13.9 92 1021.1
08:22 15.4 14.1 92 1021.3
08:33 15.6 14.3 92 1021.4
08:43 15.9 14.4 91 1021.4
08:52 16.1 14.5 90 1021.6
09:03 16.3 14.5 89 1021.6
09:13 16.5 14.5 88 1021.8
09:23 16.8 14.8 88 1021.9
09:33 17.2 15 87 1022
09:43 17.7 15.3 86 1022
09:53 18.2 15.5 84 1022.1
10:03 18.6 15.7 83 1022.1
10:13 19 15.7 81 1022.1
10:24 19.4 15.9 80 1022.2
10:33 19.8 16.1 79 1022.2
10:43 20.1 16.1 78 1022.2
10:54 20.4 16.2 77 1022.4
11:04 20.6 16 75 1022.4
11:14 20.9 16.3 75 1022.4
11:24 21.1 16.1 73 1022.4
11:34 21.3 16.3 73 1022.3
11:44 21.5 16.2 72 1022.3
11:54 21.8 16.5 72 1022.3
12:05 22 16.5 71 1022.2
12:14 22.2 16.5 70 1022.2
12:24 22.4 16.7 70 1022.1
12:34 22.5 16.8 70 1022.2
12:45 22.7 17 70 1022.4
12:55 22.7 16.7 69 1022.4
13:04 22.6 16.6 69 1022.4
13:12 22.4 16.4 69 1022.4
13:24 22.1 16.4 70 1022.4
13:31 21.9 16 69 1022.4
13:45 21.6 15.9 70 1022.3
13:55 21.4 15.7 70 1022.3
14:05 21.2 15.3 69 1022.4
14:16 21.1 15.4 70 1022.4
14:17 21.1 15.4 70 1022.5
14:36 20.9 15.2 70 1022.5
14:43 20.9 15.2 70 1022.3
15:06 20.8 15.4 71 1022.4
15:15 20.8 15.4 71 1022.5
15:36 20.8 16.2 75 1022.6
15:45 20.7 16.3 76 1023.1
16:16 20.2 16.2 78 1023.2
16:27 20 16.4 80 1023.4
16:37 19.6 16.1 80 1023.6
16:46 19.3 15.8 80 1023.7
16:56 19 15.7 81 1023.7
17:07 18.7 15.6 82 1023.8
17:17 18.5 15.6 83 1024
17:27 18.4 15.5 83 1024.1
17:38 18.2 15.5 84 1024.1
17:47 18.1 15.4 84 1024.2
17:57 17.9 15.3 85 1024.2
18:07 17.8 15.4 86 1024.2
18:18 17.7 15.5 87 1024.2
18:28 17.6 15.4 87 1024.3
18:37 17.6 15.6 88 1024.3
18:48 17.5 15.5 88 1024.3
18:58 17.3 15.3 88 1024.5
19:08 17.2 15.4 89 1024.5
19:18 17.2 15.4 89 1024.7
19:28 17 15.2 89 1024.7
19:38 16.9 15.1 89 1024.8
19:48 16.8 15 89 1024.7
19:59 16.7 15.1 90 1024.8
20:13 16.4 14.8 90 1025
20:23 16.2 14.6 90 1025.1
20:34 16 14.4 90 1025.2
20:44 15.9 14.3 90 1025.3
20:54 15.8 14.3 91 1025.3
21:04 15.7 14.2 91 1025.4
21:14 15.7 14.2 91 1025.5
21:24 15.5 14 91 1025.6
21:34 15.3 13.8 91 1025.6
21:44 15.2 13.7 91 1025.6
21:55 15.1 13.8 92 1025.6
22:04 15 13.7 92 1025.5
22:14 14.9 13.4 91 1025.7

DAY STATISTIC

2019-11-15
TEMPERATURE
AVERAGE
17.6
HIGH
22.7
12:45
LOW
14.9
22:14
PRESSURE
AVERAGE
1021.5
HIGH
1025.7
22:14
LOW
1016.7
00:08
DEWPOINT
AVERAGE
15.0
HIGH
17.0
12:45
LOW
13.4
22:14
HUMIDITY
AVERAGE
85
HIGH
94
01:18
LOW
69
12:55
TEMPERATURE (°C)
LOW
14.9
HIGH
22.7
AVERAGE
17.6
PRESSURE (hpa)
LOW
1016.7
HIGH
1025.7
AVERAGE
1021.5
DEVICE